Аэропорт: Звартноц. Ереван

ICAO: UDYZ

METAR:
2021-01-20 03:00:00
UDYZ 200300Z 00000KT 2000 R09/P2000N -SN BR SCT010 OVC030 M04/M05 Q1014 R09/490531 NOSIG
METAR:
2021-01-19 23:05:00
TAF UDYZ 192305Z 2000/2024 VRB06KT 1200 BR SCT010 TEMPO 2000/2006 0200 SN FZFG VV002